Algonac, Michigan
Current Conditions -  °F | °C
As of 7:59 PM on Monday 26 Jan 2015 (Local Time) from KMTC Reporting Station
Broken Clouds Broken Clouds  
Wind Chill:   Ceiling: 2400
Heat Index: 16°   Visibility: 10mi
Dew Point: 10°   Wind: 6mph
Humidity: 79%   Direction: 360°N
Pressure: 29.95"   Gusts: NA
Location:  42.62°N, 82.53°W
Report Text: KMTC 270059Z AUTO 36005KT 10SM FEW019 BKN024 M09/M12 A2995 RMK AO2 $
Loading
Personal Weather Stations






























Interactive Weather Map New forecast layout! Learn more

10-Day Weather Forecast

Advertisements
Track Severe Weather on mobile